createdAt,value
2023-04-25T00:01:29.128Z,17.77
2023-04-25T00:03:57.226Z,12.23
2023-04-25T00:06:27.370Z,14.65
2023-04-25T00:08:55.070Z,13.82
2023-04-25T00:11:22.614Z,14.23
2023-04-25T00:13:51.681Z,14.30
2023-04-25T00:16:19.424Z,19.27
2023-04-25T00:18:52.240Z,14.63
2023-04-25T00:21:20.723Z,11.32
2023-04-25T00:23:48.892Z,18.13
2023-04-25T00:26:16.581Z,13.57
2023-04-25T00:28:44.109Z,15.63
2023-04-25T00:31:11.781Z,16.98
2023-04-25T00:33:39.357Z,14.57
2023-04-25T00:36:09.596Z,20.38
2023-04-25T00:38:39.075Z,11.13
2023-04-25T00:41:08.087Z,17.40
2023-04-25T00:43:36.039Z,20.15
2023-04-25T00:46:03.722Z,20.35
2023-04-25T00:48:31.354Z,20.02
2023-04-25T00:51:00.763Z,16.93
2023-04-25T00:53:30.590Z,18.50
2023-04-25T00:55:58.426Z,19.85
2023-04-25T00:58:26.338Z,15.52
2023-04-25T01:00:54.170Z,17.38
2023-04-25T01:03:22.745Z,14.60
2023-04-25T01:05:50.741Z,16.40
2023-04-25T01:08:18.518Z,22.13
2023-04-25T01:10:47.501Z,23.30
2023-04-25T01:13:15.084Z,18.60
2023-04-25T01:15:42.627Z,23.13
2023-04-25T01:18:10.426Z,16.38
2023-04-25T01:20:39.368Z,15.35
2023-04-25T01:23:08.454Z,17.17
2023-04-25T01:25:36.874Z,12.98
2023-04-25T01:28:04.529Z,13.27
2023-04-25T01:30:33.814Z,20.15
2023-04-25T01:33:03.615Z,16.20
2023-04-25T01:35:31.248Z,20.10
2023-04-25T01:37:59.589Z,17.23
2023-04-25T01:40:29.517Z,18.13
2023-04-25T01:42:58.536Z,21.58
2023-04-25T01:45:26.143Z,17.15
2023-04-25T01:47:55.062Z,23.63
2023-04-25T01:50:22.654Z,16.08
2023-04-25T01:52:51.083Z,14.73
2023-04-25T01:55:20.385Z,18.20
2023-04-25T01:58:01.457Z,19.85
2023-04-25T02:00:48.428Z,18.65
2023-04-25T02:03:16.102Z,16.60
2023-04-25T02:05:44.059Z,15.80
2023-04-25T02:08:13.952Z,16.10
2023-04-25T02:10:41.622Z,15.88
2023-04-25T02:13:22.625Z,11.07
2023-04-25T02:15:59.375Z,17.23
2023-04-25T02:18:27.334Z,18.77
2023-04-25T02:20:55.038Z,15.55
2023-04-25T02:23:22.626Z,18.50
2023-04-25T02:25:50.590Z,16.25
2023-04-25T02:28:18.120Z,17.70
2023-04-25T02:30:47.027Z,10.20
2023-04-25T02:33:14.619Z,16.73
2023-04-25T02:35:42.154Z,19.60
2023-04-25T02:38:09.727Z,17.95
2023-04-25T02:40:37.385Z,13.45
2023-04-25T02:43:04.906Z,24.23
2023-04-25T02:45:32.466Z,13.52
2023-04-25T02:48:01.488Z,14.20
2023-04-25T02:50:29.328Z,17.65
2023-04-25T02:52:56.924Z,14.77
2023-04-25T02:55:29.682Z,16.17
2023-04-25T02:57:58.350Z,16.08
2023-04-25T03:00:45.320Z,15.55
2023-04-25T03:03:14.718Z,17.15
2023-04-25T03:05:42.477Z,18.20
2023-04-25T03:08:10.341Z,12.90
2023-04-25T03:10:39.360Z,18.58
2023-04-25T03:13:09.890Z,17.17
2023-04-25T03:15:38.386Z,14.18
2023-04-25T03:18:06.093Z,18.73
2023-04-25T03:20:35.025Z,21.47
2023-04-25T03:23:02.755Z,10.75
2023-04-25T03:25:31.450Z,14.50
2023-04-25T03:27:59.003Z,19.08
2023-04-25T03:30:26.797Z,14.90
2023-04-25T03:32:54.512Z,14.23
2023-04-25T03:35:23.490Z,13.43
2023-04-25T03:37:52.490Z,17.15
2023-04-25T03:40:25.963Z,15.48
2023-04-25T03:43:12.113Z,16.02
2023-04-25T03:45:43.294Z,14.00
2023-04-25T03:48:11.060Z,11.88
2023-04-25T03:50:39.420Z,18.40
2023-04-25T03:53:08.702Z,16.00
2023-04-25T03:55:56.168Z,11.45
2023-04-25T03:58:25.288Z,15.97
2023-04-25T04:00:52.931Z,14.27
2023-04-25T04:03:21.342Z,14.05
2023-04-25T04:05:49.256Z,23.15
2023-04-25T04:08:18.201Z,21.00
2023-04-25T04:10:45.835Z,14.63
2023-04-25T04:13:13.436Z,14.48
2023-04-25T04:15:41.119Z,16.38
2023-04-25T04:18:09.148Z,15.23
2023-04-25T04:20:36.797Z,14.30
2023-04-25T04:23:04.495Z,17.77
2023-04-25T04:25:33.573Z,12.13
2023-04-25T04:28:08.019Z,21.73
2023-04-25T04:30:52.024Z,33.55
2023-04-25T04:33:20.789Z,27.38
2023-04-25T04:35:54.492Z,10.77
2023-04-25T04:38:23.008Z,12.35
2023-04-25T04:40:53.437Z,11.15
2023-04-25T04:43:26.906Z,21.30
2023-04-25T04:46:11.143Z,12.02
2023-04-25T04:48:57.485Z,16.80
2023-04-25T04:51:46.323Z,16.98
2023-04-25T04:54:31.708Z,17.50
2023-04-25T04:57:14.765Z,12.23
2023-04-25T04:59:58.345Z,13.07
2023-04-25T05:02:55.083Z,11.00
2023-04-25T05:05:41.799Z,18.33
2023-04-25T05:08:32.261Z,11.93
2023-04-25T05:11:12.097Z,11.70
2023-04-25T05:13:57.138Z,11.00
2023-04-25T05:16:43.178Z,8.43
2023-04-25T05:19:22.237Z,12.02
2023-04-25T05:22:15.494Z,11.52
2023-04-25T05:25:01.322Z,8.75
2023-04-25T05:27:42.017Z,7.38
2023-04-25T05:30:22.590Z,12.90
2023-04-25T05:32:59.674Z,9.32
2023-04-25T05:35:28.354Z,13.88
2023-04-25T05:37:56.896Z,9.65
2023-04-25T05:40:36.828Z,13.45
2023-04-25T05:43:21.501Z,12.53
2023-04-25T05:45:59.384Z,11.65
2023-04-25T05:48:53.260Z,9.65
2023-04-25T05:51:43.824Z,13.18
2023-04-25T05:54:37.726Z,13.57
2023-04-25T05:57:05.708Z,9.50
2023-04-25T05:59:33.631Z,10.00
2023-04-25T06:02:03.097Z,14.10
2023-04-25T06:04:34.369Z,12.45
2023-04-25T06:07:02.526Z,13.05
2023-04-25T06:09:30.470Z,13.77
2023-04-25T06:11:58.011Z,15.05
2023-04-25T06:14:27.148Z,14.52
2023-04-25T06:16:55.843Z,11.98
2023-04-25T06:19:24.786Z,13.18
2023-04-25T06:21:52.354Z,14.27
2023-04-25T06:24:20.591Z,10.25
2023-04-25T06:26:48.574Z,7.97
2023-04-25T06:29:16.427Z,10.57
2023-04-25T06:31:44.438Z,13.70
2023-04-25T06:34:12.421Z,14.23
2023-04-25T06:36:45.041Z,13.88
2023-04-25T06:39:15.895Z,14.00
2023-04-25T06:41:43.419Z,13.43
2023-04-25T06:44:31.361Z,15.40
2023-04-25T06:46:59.515Z,14.33
2023-04-25T06:49:27.332Z,11.48
2023-04-25T06:51:56.572Z,12.65
2023-04-25T06:54:25.782Z,20.05
2023-04-25T06:57:02.211Z,13.80
2023-04-25T06:59:30.388Z,11.23
2023-04-25T07:01:57.916Z,9.75
2023-04-25T07:04:27.484Z,13.20
2023-04-25T07:07:01.944Z,13.30
2023-04-25T07:09:45.541Z,12.10
2023-04-25T07:12:13.101Z,8.97
2023-04-25T07:14:41.200Z,9.23
2023-04-25T07:17:10.697Z,9.02
2023-04-25T07:19:40.697Z,11.30
2023-04-25T07:22:10.711Z,9.13
2023-04-25T07:24:41.860Z,7.30
2023-04-25T07:27:11.654Z,12.77
2023-04-25T07:29:51.061Z,15.27
2023-04-25T07:32:18.687Z,14.32
2023-04-25T07:34:46.282Z,8.85
2023-04-25T07:37:15.968Z,12.00
2023-04-25T07:39:58.850Z,10.98
2023-04-25T07:42:26.505Z,9.43
2023-04-25T07:44:54.214Z,6.50
2023-04-25T07:47:21.936Z,10.93
2023-04-25T07:49:49.854Z,10.27
2023-04-25T07:52:18.861Z,10.85
2023-04-25T07:54:52.789Z,13.07
2023-04-25T07:57:26.493Z,12.63
2023-04-25T07:59:56.078Z,10.57
2023-04-25T08:02:23.842Z,16.40
2023-04-25T08:04:51.738Z,12.15
2023-04-25T08:07:22.308Z,8.02
2023-04-25T08:09:53.514Z,10.23
2023-04-25T08:12:26.727Z,10.32
2023-04-25T08:14:54.637Z,7.00
2023-04-25T08:17:24.527Z,8.63
2023-04-25T08:19:52.167Z,12.85
2023-04-25T08:22:27.595Z,13.13
2023-04-25T08:25:10.429Z,8.27
2023-04-25T08:27:38.931Z,8.67
2023-04-25T08:30:09.774Z,8.07
2023-04-25T08:32:39.922Z,8.38
2023-04-25T08:35:22.300Z,7.65
2023-04-25T08:37:52.722Z,8.38
2023-04-25T08:40:26.917Z,13.13
2023-04-25T08:42:58.654Z,10.07
2023-04-25T08:45:29.732Z,11.40
2023-04-25T08:47:59.251Z,11.80
2023-04-25T08:50:27.307Z,9.35
2023-04-25T08:52:56.416Z,11.47
2023-04-25T08:55:25.306Z,9.02
2023-04-25T08:57:58.585Z,10.95
2023-04-25T09:00:26.826Z,10.32
2023-04-25T09:02:54.813Z,10.45
2023-04-25T09:05:23.727Z,11.03
2023-04-25T09:07:53.893Z,12.32
2023-04-25T09:10:22.904Z,10.02
2023-04-25T09:13:04.650Z,12.52
2023-04-25T09:15:35.208Z,9.93
2023-04-25T09:18:29.911Z,9.67
2023-04-25T09:21:02.989Z,11.10
2023-04-25T09:23:41.393Z,12.98
2023-04-25T09:26:11.095Z,10.18
2023-04-25T09:28:38.953Z,9.68
2023-04-25T09:31:06.664Z,11.90
2023-04-25T09:33:39.309Z,14.10
2023-04-25T09:36:11.915Z,14.88
2023-04-25T09:38:52.306Z,6.90
2023-04-25T09:41:26.855Z,11.45
2023-04-25T09:43:59.312Z,6.97
2023-04-25T09:46:37.194Z,11.55
2023-04-25T09:49:09.146Z,6.93
2023-04-25T09:51:56.017Z,8.23
2023-04-25T09:54:24.992Z,10.23
2023-04-25T09:57:15.666Z,6.00
2023-04-25T09:59:48.089Z,9.32
2023-04-25T10:02:18.027Z,8.10
2023-04-25T10:04:49.222Z,8.02
2023-04-25T10:07:24.028Z,6.70
2023-04-25T10:09:56.618Z,4.80
2023-04-25T10:12:25.571Z,7.60
2023-04-25T10:14:54.235Z,7.80
2023-04-25T10:17:22.687Z,8.82
2023-04-25T10:19:51.109Z,8.82
2023-04-25T10:22:22.295Z,10.00
2023-04-25T10:24:50.670Z,7.18
2023-04-25T10:27:19.190Z,12.27
2023-04-25T10:30:03.274Z,8.25
2023-04-25T10:32:32.562Z,9.85
2023-04-25T10:35:00.608Z,7.93
2023-04-25T10:37:28.163Z,13.65
2023-04-25T10:39:55.835Z,7.35
2023-04-25T10:42:23.438Z,10.45
2023-04-25T10:45:06.906Z,7.18
2023-04-25T10:47:38.355Z,5.73
2023-04-25T10:50:10.676Z,8.02
2023-04-25T10:52:41.033Z,9.13
2023-04-25T10:55:09.289Z,8.25
2023-04-25T10:57:42.134Z,9.80
2023-04-25T11:00:17.022Z,9.73
2023-04-25T11:02:47.921Z,8.30
2023-04-25T11:05:24.739Z,10.75
2023-04-25T11:08:06.496Z,7.90
2023-04-25T11:10:37.113Z,6.30
2023-04-25T11:13:04.984Z,6.07
2023-04-25T11:15:33.917Z,4.85
2023-04-25T11:18:02.280Z,6.15
2023-04-25T11:20:30.423Z,4.82
2023-04-25T11:23:00.516Z,8.23
2023-04-25T11:25:28.190Z,10.97
2023-04-25T11:27:58.357Z,5.88
2023-04-25T11:30:27.900Z,7.50
2023-04-25T11:32:56.789Z,9.13
2023-04-25T11:35:26.182Z,10.35
2023-04-25T11:37:54.444Z,8.10
2023-04-25T11:40:22.111Z,6.13
2023-04-25T11:42:49.971Z,6.70
2023-04-25T11:45:19.634Z,4.68
2023-04-25T11:47:47.490Z,5.60
2023-04-25T11:50:16.507Z,8.93
2023-04-25T11:52:45.394Z,8.85
2023-04-25T11:55:15.966Z,5.05
2023-04-25T11:57:44.737Z,8.80
2023-04-25T12:00:18.491Z,8.27
2023-04-25T12:02:48.939Z,5.93
2023-04-25T12:07:49.089Z,5.95
2023-04-25T12:10:18.294Z,5.15
2023-04-25T12:12:47.472Z,9.55
2023-04-25T12:15:18.370Z,9.60
2023-04-25T12:17:47.651Z,7.60
2023-04-25T12:20:19.089Z,8.88
2023-04-25T12:22:48.628Z,8.13
2023-04-25T12:25:36.159Z,11.05
2023-04-25T12:28:14.934Z,8.40
2023-04-25T12:31:00.087Z,6.30
2023-04-25T12:33:28.789Z,10.48
2023-04-25T12:35:58.577Z,9.32
2023-04-25T12:38:27.004Z,7.70
2023-04-25T12:40:55.169Z,9.87
2023-04-25T12:43:22.892Z,6.20
2023-04-25T12:45:51.795Z,7.57
2023-04-25T12:48:19.899Z,7.70
2023-04-25T12:50:49.818Z,8.65
2023-04-25T12:53:19.845Z,8.97
2023-04-25T12:55:47.888Z,7.00
2023-04-25T12:58:15.772Z,7.82
2023-04-25T13:00:44.081Z,8.23
2023-04-25T13:03:13.471Z,8.90
2023-04-25T13:05:41.952Z,12.80
2023-04-25T13:08:09.658Z,5.57
2023-04-25T13:10:39.933Z,8.18
2023-04-25T13:13:07.470Z,6.70
2023-04-25T13:15:34.992Z,7.68
2023-04-25T13:18:02.716Z,8.20
2023-04-25T13:20:30.396Z,15.73
2023-04-25T13:22:58.498Z,8.48
2023-04-25T13:25:27.198Z,6.97
2023-04-25T13:27:56.122Z,9.68
2023-04-25T13:30:23.775Z,13.10
2023-04-25T13:32:51.342Z,9.27
2023-04-25T13:35:19.278Z,9.75
2023-04-25T13:37:47.117Z,6.28
2023-04-25T13:40:14.968Z,7.20
2023-04-25T13:42:42.617Z,9.30
2023-04-25T13:45:11.941Z,11.95
2023-04-25T13:47:39.668Z,7.75
2023-04-25T13:50:08.842Z,11.85
2023-04-25T13:52:36.479Z,9.00
2023-04-25T13:55:04.919Z,8.97
2023-04-25T13:57:32.543Z,7.28
2023-04-25T14:00:00.269Z,8.48
2023-04-25T14:02:29.327Z,8.25
2023-04-25T14:04:56.916Z,11.65
2023-04-25T14:07:24.516Z,9.60
2023-04-25T14:09:52.102Z,13.48
2023-04-25T14:12:19.708Z,8.35
2023-04-25T14:14:47.403Z,9.60
2023-04-25T14:17:14.966Z,5.50
2023-04-25T14:19:44.278Z,6.37
2023-04-25T14:22:11.857Z,9.32
2023-04-25T14:24:39.532Z,9.18
2023-04-25T14:27:07.080Z,7.13
2023-04-25T14:29:34.668Z,9.20
2023-04-25T14:32:02.941Z,9.10
2023-04-25T14:34:30.500Z,9.15
2023-04-25T14:36:59.524Z,10.07
2023-04-25T14:39:27.098Z,6.55
2023-04-25T14:41:54.633Z,7.65
2023-04-25T14:44:22.322Z,7.33
2023-04-25T14:46:52.490Z,11.23
2023-04-25T14:49:20.460Z,5.20
2023-04-25T14:51:50.170Z,6.80
2023-04-25T14:54:20.358Z,6.63
2023-04-25T14:56:48.138Z,9.33
2023-04-25T14:59:15.742Z,7.90
2023-04-25T15:01:43.508Z,9.05
2023-04-25T15:04:11.739Z,6.60
2023-04-25T15:06:39.408Z,6.72
2023-04-25T15:09:07.320Z,5.57
2023-04-25T15:11:36.272Z,6.30
2023-04-25T15:14:03.873Z,5.70
2023-04-25T15:16:31.781Z,5.32
2023-04-25T15:18:59.400Z,6.13
2023-04-25T15:21:27.464Z,7.97
2023-04-25T15:23:55.093Z,8.82
2023-04-25T15:26:22.675Z,6.53
2023-04-25T15:28:51.610Z,8.98
2023-04-25T15:31:19.151Z,7.10
2023-04-25T15:33:46.776Z,6.23
2023-04-25T15:36:17.203Z,6.90
2023-04-25T15:38:44.780Z,11.05
2023-04-25T15:41:12.407Z,13.57
2023-04-25T15:43:40.365Z,7.43
2023-04-25T15:46:09.313Z,7.27
2023-04-25T15:48:37.141Z,6.30
2023-04-25T15:51:04.900Z,8.85
2023-04-25T15:53:32.527Z,8.07
2023-04-25T15:56:00.170Z,7.18
2023-04-25T15:58:27.777Z,8.70
2023-04-25T16:00:56.550Z,7.75
2023-04-25T16:03:25.816Z,7.43
2023-04-25T16:05:53.426Z,6.13
2023-04-25T16:08:21.027Z,7.10
2023-04-25T16:10:48.782Z,9.07
2023-04-25T16:13:16.714Z,6.53
2023-04-25T16:15:44.394Z,9.23
2023-04-25T16:18:12.119Z,8.32
2023-04-25T16:20:41.142Z,8.02
2023-04-25T16:23:08.687Z,7.73
2023-04-25T16:25:36.308Z,10.82
2023-04-25T16:28:03.888Z,7.72
2023-04-25T16:30:31.547Z,10.88
2023-04-25T16:32:59.102Z,9.98
2023-04-25T16:35:30.429Z,8.23
2023-04-25T16:37:59.645Z,8.75
2023-04-25T16:40:28.094Z,7.07
2023-04-25T16:42:55.649Z,6.43
2023-04-25T16:45:24.248Z,5.57
2023-04-25T16:47:51.825Z,4.90
2023-04-25T16:50:20.358Z,5.88
2023-04-25T16:52:47.908Z,6.57
2023-04-25T16:55:16.748Z,9.85
2023-04-25T16:57:44.294Z,5.80
2023-04-25T17:00:13.477Z,6.47
2023-04-25T17:02:41.525Z,9.80
2023-04-25T17:05:10.422Z,7.70
2023-04-25T17:07:38.059Z,9.30
2023-04-25T17:10:06.586Z,5.65
2023-04-25T17:12:35.751Z,6.90
2023-04-25T17:15:03.523Z,13.00
2023-04-25T17:17:31.056Z,9.18
2023-04-25T17:19:58.672Z,8.57
2023-04-25T17:22:26.440Z,7.75
2023-04-25T17:24:54.623Z,8.67
2023-04-25T17:27:22.270Z,11.13
2023-04-25T17:29:51.169Z,9.50
2023-04-25T17:32:18.829Z,8.07
2023-04-25T17:34:47.980Z,6.93
2023-04-25T17:37:16.605Z,7.00
2023-04-25T17:39:44.714Z,9.52
2023-04-25T17:42:12.945Z,8.32
2023-04-25T17:44:40.490Z,5.43
2023-04-25T17:47:09.817Z,5.68
2023-04-25T17:49:37.334Z,6.27
2023-04-25T17:52:05.526Z,6.68
2023-04-25T17:54:33.163Z,7.60
2023-04-25T17:57:00.886Z,6.05
2023-04-25T17:59:28.711Z,7.70
2023-04-25T18:01:58.613Z,9.50
2023-04-25T18:04:27.819Z,8.80
2023-04-25T18:06:55.702Z,7.63
2023-04-25T18:09:23.699Z,7.18
2023-04-25T18:11:53.213Z,7.63
2023-04-25T18:14:21.746Z,8.27
2023-04-25T18:16:50.914Z,9.73
2023-04-25T18:19:21.452Z,8.27
2023-04-25T18:21:53.167Z,12.32
2023-04-25T18:24:21.978Z,8.07
2023-04-25T18:26:49.761Z,6.90
2023-04-25T18:29:32.273Z,10.07
2023-04-25T18:32:01.173Z,15.23
2023-04-25T18:34:28.803Z,9.65
2023-04-25T18:36:59.098Z,9.40
2023-04-25T18:39:27.736Z,7.53
2023-04-25T18:42:01.464Z,6.78
2023-04-25T18:44:35.472Z,7.80
2023-04-25T18:47:03.055Z,9.73
2023-04-25T18:49:30.795Z,10.23
2023-04-25T18:51:59.786Z,8.97
2023-04-25T18:54:27.336Z,8.02
2023-04-25T18:56:55.655Z,12.00
2023-04-25T18:59:23.295Z,10.05
2023-04-25T19:01:51.798Z,11.85
2023-04-25T19:04:19.511Z,7.63
2023-04-25T19:06:49.136Z,9.13
2023-04-25T19:09:20.022Z,8.23
2023-04-25T19:11:47.602Z,7.72
2023-04-25T19:14:15.260Z,11.07
2023-04-25T19:16:42.855Z,9.93
2023-04-25T19:19:10.761Z,8.55
2023-04-25T19:21:38.561Z,8.15
2023-04-25T19:24:07.067Z,7.80
2023-04-25T19:26:36.475Z,11.18
2023-04-25T19:29:05.988Z,10.57
2023-04-25T19:31:34.310Z,12.45
2023-04-25T19:34:02.028Z,13.50
2023-04-25T19:36:29.541Z,12.82
2023-04-25T19:39:02.344Z,8.80
2023-04-25T19:41:30.734Z,9.30
2023-04-25T19:44:00.706Z,8.32
2023-04-25T19:46:28.378Z,12.07
2023-04-25T19:48:56.262Z,11.25
2023-04-25T19:51:23.948Z,10.15
2023-04-25T19:53:53.484Z,11.33
2023-04-25T19:56:21.212Z,9.95
2023-04-25T19:58:49.223Z,11.52
2023-04-25T20:01:18.699Z,14.40
2023-04-25T20:03:48.094Z,8.73
2023-04-25T20:06:16.089Z,9.60
2023-04-25T20:08:44.221Z,7.43
2023-04-25T20:11:12.013Z,8.85
2023-04-25T20:13:39.536Z,7.78
2023-04-25T20:16:07.573Z,7.22
2023-04-25T20:18:36.611Z,9.67
2023-04-25T20:21:04.187Z,10.02
2023-04-25T20:23:31.764Z,8.40
2023-04-25T20:25:59.327Z,9.30
2023-04-25T20:28:27.399Z,12.07
2023-04-25T20:30:55.229Z,10.87
2023-04-25T20:33:23.048Z,10.30
2023-04-25T20:35:52.989Z,7.40
2023-04-25T20:38:20.644Z,9.38
2023-04-25T20:40:48.389Z,7.15
2023-04-25T20:43:16.678Z,6.73
2023-04-25T20:45:44.460Z,15.10
2023-04-25T20:48:12.076Z,9.10
2023-04-25T20:50:39.601Z,8.88
2023-04-25T20:53:08.829Z,8.00
2023-04-25T20:55:36.552Z,8.80
2023-04-25T20:58:04.566Z,9.77
2023-04-25T21:00:32.177Z,10.32
2023-04-25T21:02:59.884Z,10.55
2023-04-25T21:05:27.586Z,8.43
2023-04-25T21:07:57.006Z,7.80
2023-04-25T21:10:26.000Z,8.07
2023-04-25T21:12:55.592Z,10.88
2023-04-25T21:15:24.562Z,6.10
2023-04-25T21:17:52.848Z,10.30
2023-04-25T21:20:22.383Z,12.73
2023-04-25T21:22:53.897Z,11.40
2023-04-25T21:25:25.400Z,7.38
2023-04-25T21:27:54.413Z,9.40
2023-04-25T21:30:24.701Z,6.90
2023-04-25T21:32:53.357Z,7.73
2023-04-25T21:35:22.700Z,7.97
2023-04-25T21:37:50.780Z,6.63
2023-04-25T21:40:18.760Z,5.55
2023-04-25T21:42:51.144Z,10.02
2023-04-25T21:45:20.886Z,13.70
2023-04-25T21:47:48.942Z,10.30
2023-04-25T21:50:24.164Z,8.70
2023-04-25T21:52:53.938Z,9.73
2023-04-25T21:55:22.538Z,9.13
2023-04-25T21:57:50.107Z,8.13
2023-04-25T22:00:27.596Z,9.60
2023-04-25T22:02:56.232Z,9.63
2023-04-25T22:05:26.781Z,9.20
2023-04-25T22:07:56.357Z,10.05
2023-04-25T22:10:25.001Z,8.30
2023-04-25T22:12:52.801Z,5.83
2023-04-25T22:15:23.330Z,9.38
2023-04-25T22:17:52.162Z,11.75
2023-04-25T22:20:24.046Z,9.32
2023-04-25T22:22:53.205Z,6.45
2023-04-25T22:25:21.120Z,9.43
2023-04-25T22:27:49.256Z,9.52
2023-04-25T22:30:16.968Z,9.73
2023-04-25T22:32:44.599Z,11.13
2023-04-25T22:35:12.455Z,7.18
2023-04-25T22:37:40.078Z,5.43
2023-04-25T22:40:10.505Z,7.35
2023-04-25T22:42:39.673Z,7.18
2023-04-25T22:45:09.194Z,8.38
2023-04-25T22:47:36.959Z,8.43
2023-04-25T22:50:07.383Z,5.40
2023-04-25T22:52:35.547Z,9.02
2023-04-25T22:55:03.684Z,11.80
2023-04-25T22:57:33.025Z,6.93
2023-04-25T23:00:01.547Z,7.18
2023-04-25T23:02:29.356Z,12.93
2023-04-25T23:04:56.978Z,7.68
2023-04-25T23:07:25.118Z,4.90
2023-04-25T23:09:52.757Z,7.82
2023-04-25T23:12:20.360Z,7.30
2023-04-25T23:14:51.775Z,8.70
2023-04-25T23:17:20.217Z,8.95
2023-04-25T23:19:48.242Z,9.57
2023-04-25T23:22:15.838Z,7.15
2023-04-25T23:24:43.539Z,6.70
2023-04-25T23:27:11.105Z,8.73
2023-04-25T23:29:40.477Z,5.35
2023-04-25T23:32:10.249Z,7.35
2023-04-25T23:34:37.826Z,8.48
2023-04-25T23:37:05.348Z,9.98
2023-04-25T23:39:33.082Z,9.53
2023-04-25T23:42:00.722Z,8.60
2023-04-25T23:44:28.275Z,6.28
2023-04-25T23:46:55.822Z,6.38
2023-04-25T23:49:24.708Z,7.72
2023-04-25T23:51:52.243Z,8.87
2023-04-25T23:54:19.802Z,9.13
2023-04-25T23:56:47.323Z,11.05
2023-04-25T23:59:14.911Z,6.65
